Terminal Aerodrome Forecast
Issued by NWS Sterling, VA

Home | Current Version | Previous Version | Text Only | Print | Product List | Glossary On
Versions: 1 2 3 4 5 6 7 8 9 10 11 12 13 14 15 16 17 18 19 20 21 22 23 24
000
FTUS41 KLWX 040520
TAFDCA
TAF
KDCA 040520Z 0406/0506 30005KT P6SM FEW040 BKN250
     FM041200 36004KT P6SM BKN200
     FM050300 15004KT 6SM -RA BR OVC050=

USA.gov is the U.S. government's official web portal to all federal, state and local government web resources and services.